createdAt,value
2022-10-19T00:01:21.759Z,19.6044921875
2022-10-19T00:11:21.670Z,19.39697265625
2022-10-19T00:21:21.644Z,17.7978515625
2022-10-19T00:31:21.517Z,17.00439453125
2022-10-19T00:41:21.474Z,16.50390625
2022-10-19T00:51:21.379Z,15.90576171875
2022-10-19T01:01:21.406Z,16.50390625
2022-10-19T01:11:21.235Z,17.7978515625
2022-10-19T01:21:21.152Z,16.50390625
2022-10-19T01:31:21.082Z,16.6015625
2022-10-19T01:41:21.048Z,18.29833984375
2022-10-19T01:51:20.936Z,21.39892578125
2022-10-19T02:01:20.871Z,20.49560546875
2022-10-19T02:11:20.806Z,20.39794921875
2022-10-19T02:21:20.754Z,20.20263671875
2022-10-19T02:31:20.660Z,19.7021484375
2022-10-19T02:51:20.508Z,17.19970703125
2022-10-19T03:01:20.511Z,16.89453125
2022-10-19T03:11:20.369Z,17.6025390625
2022-10-19T03:21:20.315Z,17.39501953125
2022-10-19T03:31:20.226Z,16.796875
2022-10-19T03:41:20.167Z,16.10107421875
2022-10-19T03:51:20.230Z,15.7958984375
2022-10-19T04:01:20.204Z,15.29541015625
2022-10-19T04:11:19.954Z,14.90478515625
2022-10-19T04:21:19.888Z,14.501953125
2022-10-19T04:31:19.828Z,14.29443359375
2022-10-19T04:41:19.739Z,14.00146484375
2022-10-19T04:51:19.657Z,13.90380859375
2022-10-19T05:01:19.736Z,13.6962890625
2022-10-19T05:11:19.540Z,13.5986328125
2022-10-19T05:21:19.458Z,13.3056640625
2022-10-19T05:31:19.476Z,13.09814453125
2022-10-19T05:41:19.328Z,13.00048828125
2022-10-19T05:51:19.254Z,13.09814453125
2022-10-19T06:01:19.374Z,13.00048828125
2022-10-19T06:11:19.124Z,12.90283203125
2022-10-19T06:21:19.081Z,12.90283203125
2022-10-19T06:31:18.979Z,12.6953125
2022-10-19T06:41:18.909Z,12.40234375
2022-10-19T06:51:18.837Z,12.5
2022-10-19T07:01:18.847Z,12.200927734375
2022-10-19T07:11:18.691Z,12.09716796875
2022-10-19T07:21:18.728Z,12.09716796875
2022-10-19T07:31:18.671Z,12.200927734375
2022-10-19T07:41:18.480Z,12.09716796875
2022-10-19T07:51:18.460Z,12.200927734375
2022-10-19T08:01:18.356Z,12.298583984375
2022-10-19T08:11:18.274Z,12.200927734375
2022-10-19T08:21:18.211Z,12.200927734375
2022-10-19T08:31:18.128Z,12.200927734375
2022-10-19T08:41:18.083Z,12.200927734375
2022-10-19T08:51:17.989Z,12.09716796875
2022-10-19T09:01:17.931Z,12.200927734375
2022-10-19T09:11:17.862Z,12.09716796875
2022-10-19T09:21:17.805Z,12.09716796875
2022-10-19T09:31:17.715Z,12.09716796875
2022-10-19T09:41:17.680Z,12.200927734375
2022-10-19T09:51:17.577Z,12.200927734375
2022-10-19T10:01:17.525Z,12.298583984375
2022-10-19T10:11:17.455Z,12.40234375
2022-10-19T10:21:18.801Z,12.298583984375
2022-10-19T10:31:17.284Z,12.40234375
2022-10-19T10:41:17.243Z,12.5
2022-10-19T11:01:17.185Z,12.298583984375
2022-10-19T11:11:17.014Z,12.200927734375
2022-10-19T11:21:16.942Z,11.99951171875
2022-10-19T11:31:16.866Z,12.09716796875
2022-10-19T11:41:18.190Z,12.09716796875
2022-10-19T11:51:21.398Z,11.99951171875
2022-10-19T12:01:16.779Z,11.798095703125
2022-10-19T12:11:16.610Z,11.4990234375
2022-10-19T12:21:16.532Z,11.4990234375
2022-10-19T12:31:16.455Z,11.700439453125
2022-10-19T12:41:16.521Z,11.4990234375
2022-10-19T12:51:16.306Z,11.297607421875
2022-10-19T13:01:16.321Z,10.99853515625
2022-10-19T13:11:16.162Z,10.601806640625
2022-10-19T13:21:16.113Z,10.498046875
2022-10-19T13:31:16.045Z,10.101318359375
2022-10-19T13:41:15.979Z,9.89990234375
2022-10-19T13:51:15.916Z,9.89990234375
2022-10-19T14:01:16.012Z,9.89990234375
2022-10-19T14:11:15.765Z,9.80224609375
2022-10-19T14:21:15.703Z,9.698486328125
2022-10-19T14:31:15.632Z,9.698486328125
2022-10-19T14:41:15.552Z,9.600830078125
2022-10-19T14:51:15.503Z,9.4970703125
2022-10-19T15:01:15.486Z,9.3017578125
2022-10-19T15:11:15.380Z,9.197998046875
2022-10-19T15:21:15.271Z,8.89892578125
2022-10-19T15:31:15.227Z,8.89892578125
2022-10-19T15:41:15.171Z,8.89892578125
2022-10-19T15:51:17.578Z,8.80126953125
2022-10-19T16:01:15.072Z,8.89892578125
2022-10-19T16:11:14.957Z,8.89892578125
2022-10-19T16:21:14.875Z,8.89892578125
2022-10-19T16:31:14.814Z,8.89892578125
2022-10-19T16:41:14.756Z,9.002685546875
2022-10-19T16:51:14.671Z,9.002685546875
2022-10-19T17:01:14.644Z,9.002685546875
2022-10-19T17:11:14.539Z,8.89892578125
2022-10-19T17:21:14.476Z,8.89892578125
2022-10-19T17:31:14.408Z,8.89892578125
2022-10-19T17:41:14.324Z,8.89892578125
2022-10-19T17:51:14.262Z,9.600830078125
2022-10-19T18:01:14.206Z,9.197998046875
2022-10-19T18:11:14.132Z,9.197998046875
2022-10-19T18:21:14.098Z,9.3994140625
2022-10-19T18:31:13.988Z,9.99755859375
2022-10-19T18:51:13.848Z,10.198974609375
2022-10-19T19:01:13.915Z,10.498046875
2022-10-19T19:11:13.715Z,10.101318359375
2022-10-19T19:21:13.638Z,10.400390625
2022-10-19T19:31:13.582Z,10.198974609375
2022-10-19T19:41:13.521Z,10.601806640625
2022-10-19T19:51:13.450Z,10.699462890625
2022-10-19T20:01:13.628Z,11.602783203125
2022-10-19T20:11:13.306Z,12.59765625
2022-10-19T20:21:13.255Z,13.4033203125
2022-10-19T20:31:13.318Z,14.697265625
2022-10-19T20:41:13.103Z,14.404296875
2022-10-19T20:51:13.031Z,15.6005859375
2022-10-19T21:01:13.109Z,15.7958984375
2022-10-19T21:11:12.886Z,16.50390625
2022-10-19T21:21:12.846Z,16.39404296875
2022-10-19T21:31:12.736Z,16.69921875
2022-10-19T21:41:12.679Z,17.39501953125
2022-10-19T21:51:12.600Z,17.00439453125
2022-10-19T22:01:12.614Z,17.5048828125
2022-10-19T22:11:12.446Z,18.00537109375
2022-10-19T22:21:12.421Z,18.00537109375
2022-10-19T22:31:12.326Z,18.29833984375
2022-10-19T22:41:12.265Z,17.7001953125
2022-10-19T22:51:12.194Z,17.7001953125
2022-10-19T23:01:12.254Z,18.00537109375
2022-10-19T23:11:12.125Z,17.00439453125
2022-10-19T23:21:11.960Z,17.00439453125
2022-10-19T23:31:11.913Z,16.796875
2022-10-19T23:41:11.833Z,17.29736328125
2022-10-19T23:51:11.877Z,18.10302734375
